Time;durP1;ratioP1;P1;durP2;ratioP2;P2;SDS_P1;SDS_P2;PMS_P1;PMS_P2;Temp;Humidity;BMP_temperature;BMP_pressure;BME280_temperature;BME280_humidity;BME280_pressure;Samples;Min_cycle;Max_cycle;Signal;HPM_P1;HPM_P2
2022/07/01 00:02:24;;;;;;;2.70;1.20;;;16.00;99.90;;;;;;5053584;28;20459;-77
2022/07/01 00:04:51;;;;;;;2.30;1.50;;;15.90;99.90;;;;;;5053449;28;20473;-77
2022/07/01 00:07:18;;;;;;;2.00;1.40;;;16.00;99.90;;;;;;5053206;28;20856;-77
2022/07/01 00:09:45;;;;;;;2.87;1.50;;;16.00;99.90;;;;;;5052624;28;20463;-77
2022/07/01 00:12:13;;;;;;;1.60;1.13;;;15.90;99.90;;;;;;5053263;28;20966;-76
2022/07/01 00:14:40;;;;;;;1.40;1.10;;;15.90;99.90;;;;;;5053796;28;20466;-77
2022/07/01 00:17:07;;;;;;;1.23;1.00;;;15.80;99.90;;;;;;5053520;28;20482;-77
2022/07/01 00:19:34;;;;;;;1.40;1.30;;;15.80;99.90;;;;;;5052712;28;20455;-76
2022/07/01 00:22:00;;;;;;;1.53;1.27;;;15.70;99.90;;;;;;5051983;28;20470;-76
2022/07/01 00:24:27;;;;;;;1.50;1.10;;;15.70;99.90;;;;;;5053003;28;20475;-76
2022/07/01 00:26:54;;;;;;;1.30;1.10;;;15.70;99.90;;;;;;5052728;28;20862;-76
2022/07/01 00:29:22;;;;;;;1.60;1.30;;;15.60;99.90;;;;;;5052576;28;20467;-76
2022/07/01 00:31:49;;;;;;;2.23;1.27;;;15.60;99.90;;;;;;5052851;28;20479;-76
2022/07/01 00:34:16;;;;;;;1.23;1.13;;;15.60;99.90;;;;;;5052993;28;20464;-76
2022/07/01 00:36:42;;;;;;;1.70;1.17;;;15.50;99.90;;;;;;5052613;28;20463;-76
2022/07/01 00:39:09;;;;;;;1.50;1.27;;;15.60;99.90;;;;;;5052378;28;20463;-76
2022/07/01 00:41:36;;;;;;;2.47;1.13;;;15.50;99.90;;;;;;5052579;28;20463;-76
2022/07/01 00:44:02;;;;;;;1.30;1.00;;;15.50;99.90;;;;;;5052716;28;20932;-76
2022/07/01 00:46:32;;;;;;;1.33;1.00;;;15.50;99.90;;;;;;5052799;28;20463;-76
2022/07/01 00:49:01;;;;;;;1.60;1.20;;;15.50;99.90;;;;;;5052320;28;20866;-76
2022/07/01 00:51:28;;;;;;;1.60;1.10;;;15.40;99.90;;;;;;5052207;28;20471;-76
2022/07/01 00:53:57;;;;;;;1.40;1.10;;;15.40;99.90;;;;;;5052329;28;20463;-76
2022/07/01 00:56:24;;;;;;;2.40;0.90;;;15.40;99.90;;;;;;5052675;28;20460;-76
2022/07/01 00:58:51;;;;;;;2.67;1.10;;;15.30;99.90;;;;;;5052102;28;20480;-76
2022/07/01 01:01:19;;;;;;;1.80;1.10;;;15.30;99.90;;;;;;5052089;28;20493;-77
2022/07/01 01:03:47;;;;;;;2.00;1.27;;;15.30;99.90;;;;;;5052076;28;20468;-76
2022/07/01 01:06:14;;;;;;;2.47;1.40;;;15.30;99.90;;;;;;5052369;28;20466;-77
2022/07/01 01:08:41;;;;;;;1.90;1.50;;;15.30;99.90;;;;;;5052011;28;20492;-77
2022/07/01 01:11:08;;;;;;;1.10;1.00;;;15.30;99.90;;;;;;5052378;28;20470;-75
2022/07/01 01:13:35;;;;;;;1.10;1.00;;;15.30;99.90;;;;;;5052190;28;20459;-76
2022/07/01 01:16:01;;;;;;;1.53;1.00;;;15.30;99.90;;;;;;5051947;28;20463;-77
2022/07/01 01:18:28;;;;;;;1.47;1.23;;;15.30;99.90;;;;;;5051789;28;20472;-77
2022/07/01 01:20:56;;;;;;;1.37;1.10;;;15.30;99.90;;;;;;5051368;28;20462;-77
2022/07/01 01:23:23;;;;;;;1.47;1.20;;;15.30;99.90;;;;;;5051831;28;20452;-77
2022/07/01 01:25:50;;;;;;;2.43;1.20;;;15.30;99.90;;;;;;5051724;28;20839;-77
2022/07/01 01:28:17;;;;;;;1.53;1.40;;;15.30;99.90;;;;;;5051739;28;20498;-77
2022/07/01 01:30:44;;;;;;;2.13;1.20;;;15.30;99.90;;;;;;5051232;28;20459;-77
2022/07/01 01:33:11;;;;;;;1.43;1.23;;;15.30;99.90;;;;;;5051705;28;20460;-77
2022/07/01 01:35:38;;;;;;;1.70;1.53;;;15.30;99.90;;;;;;5051667;28;20459;-77
2022/07/01 01:38:06;;;;;;;4.00;1.23;;;15.30;99.90;;;;;;5051413;28;20479;-77
2022/07/01 01:40:33;;;;;;;1.30;1.13;;;15.20;99.90;;;;;;5050936;28;21037;-77
2022/07/01 01:43:00;;;;;;;1.30;0.90;;;15.20;99.90;;;;;;5051544;28;20538;-76
2022/07/01 01:45:28;;;;;;;3.17;1.33;;;15.20;99.90;;;;;;5051509;28;20463;-77
2022/07/01 01:47:54;;;;;;;2.03;1.30;;;15.10;99.90;;;;;;5051396;28;21071;-77
2022/07/01 01:50:21;;;;;;;1.83;1.23;;;15.10;99.90;;;;;;5050843;28;20486;-77
2022/07/01 01:52:48;;;;;;;2.40;1.20;;;15.00;99.90;;;;;;5051387;28;20464;-76
2022/07/01 01:55:16;;;;;;;3.83;1.30;;;15.00;99.90;;;;;;5051382;28;20463;-76
2022/07/01 01:57:43;;;;;;;1.70;1.00;;;15.00;99.90;;;;;;5051279;28;20472;-76
2022/07/01 02:00:11;;;;;;;1.33;1.23;;;14.90;99.90;;;;;;5050791;28;20841;-76
2022/07/01 02:02:38;;;;;;;1.77;1.30;;;14.90;99.90;;;;;;5051331;28;20712;-76
2022/07/01 02:05:05;;;;;;;1.43;1.10;;;14.90;99.90;;;;;;5051065;28;20463;-76
2022/07/01 02:07:32;;;;;;;1.43;1.00;;;14.80;99.90;;;;;;5051059;28;20498;-76
2022/07/01 02:09:59;;;;;;;1.33;1.23;;;14.80;99.90;;;;;;5050363;28;20811;-76
2022/07/01 02:12:27;;;;;;;1.50;1.00;;;14.80;99.90;;;;;;5051222;28;20470;-76
2022/07/01 02:14:54;;;;;;;1.73;1.57;;;14.70;99.90;;;;;;5051349;28;20470;-76
2022/07/01 02:17:20;;;;;;;1.70;1.40;;;14.70;99.90;;;;;;5050962;28;20498;-76
2022/07/01 02:19:47;;;;;;;2.10;1.10;;;14.70;99.90;;;;;;5050377;28;20464;-76
2022/07/01 02:22:14;;;;;;;1.73;1.63;;;14.60;99.90;;;;;;5050762;28;20466;-76
2022/07/01 02:24:40;;;;;;;2.30;1.20;;;14.60;99.90;;;;;;5050890;28;20847;-76
2022/07/01 02:27:07;;;;;;;1.60;1.27;;;14.60;99.90;;;;;;5050851;28;20506;-76
2022/07/01 02:29:35;;;;;;;1.30;1.20;;;14.50;99.90;;;;;;5050148;28;20872;-76
2022/07/01 02:32:02;;;;;;;1.23;1.13;;;14.50;99.90;;;;;;5050684;28;20922;-76
2022/07/01 02:34:29;;;;;;;1.53;1.43;;;14.40;99.90;;;;;;5051019;28;20463;-76
2022/07/01 02:36:55;;;;;;;2.30;1.47;;;14.40;99.90;;;;;;5050589;28;20975;-76
2022/07/01 02:39:23;;;;;;;1.40;1.30;;;14.40;99.90;;;;;;5050269;28;20463;-76
2022/07/01 02:44:36;;;;;;;2.60;1.20;;;14.30;99.90;;;;;;5050506;28;20439;-76
2022/07/01 02:47:03;;;;;;;2.60;1.40;;;14.30;99.90;;;;;;5050574;28;20490;-76
2022/07/01 02:49:30;;;;;;;2.97;1.70;;;14.20;99.90;;;;;;5050176;28;20490;-76
2022/07/01 02:51:56;;;;;;;2.23;1.40;;;14.20;99.90;;;;;;5050722;28;20969;-76
2022/07/01 02:54:23;;;;;;;2.33;1.43;;;14.30;99.90;;;;;;5051213;28;20468;-76
2022/07/01 02:56:50;;;;;;;2.90;1.60;;;14.20;99.90;;;;;;5050446;28;20832;-77
2022/07/01 02:59:17;;;;;;;2.27;1.90;;;14.20;99.90;;;;;;5050745;28;20464;-77
2022/07/01 03:01:45;;;;;;;2.23;1.77;;;14.20;99.90;;;;;;5051392;28;20463;-77
2022/07/01 03:04:11;;;;;;;3.17;1.97;;;14.20;99.90;;;;;;5051499;28;20467;-77
2022/07/01 03:06:38;;;;;;;2.37;2.17;;;14.20;99.90;;;;;;5052004;28;20974;-77
2022/07/01 03:09:05;;;;;;;2.50;2.10;;;14.20;99.90;;;;;;5052189;28;20483;-77
2022/07/01 03:11:31;;;;;;;2.30;2.10;;;14.20;99.90;;;;;;5051844;28;20459;-77
2022/07/01 03:13:58;;;;;;;2.53;2.03;;;14.20;99.90;;;;;;5051992;28;20459;-77
2022/07/01 03:16:25;;;;;;;2.60;2.20;;;14.20;99.90;;;;;;5052431;28;20482;-77
2022/07/01 03:18:53;;;;;;;3.50;2.40;;;14.20;99.90;;;;;;5051183;28;20471;-77
2022/07/01 03:21:20;;;;;;;2.30;2.10;;;14.20;99.90;;;;;;5051125;28;20471;-77
2022/07/01 03:23:46;;;;;;;1.73;1.57;;;14.20;99.90;;;;;;5051156;28;20513;-76
2022/07/01 03:26:14;;;;;;;2.10;1.90;;;14.20;99.90;;;;;;5052407;28;20468;-77
2022/07/01 03:28:41;;;;;;;2.23;1.87;;;14.20;99.90;;;;;;5051446;28;20483;-77
2022/07/01 03:31:08;;;;;;;1.70;1.50;;;14.20;99.90;;;;;;5050786;28;20462;-77
2022/07/01 03:33:34;;;;;;;2.17;1.97;;;14.20;99.90;;;;;;5062456;28;20478;-78
2022/07/01 03:36:03;;;;;;;1.93;1.63;;;14.20;99.90;;;;;;5070265;28;20466;-77
2022/07/01 03:38:29;;;;;;;1.47;1.30;;;14.20;99.90;;;;;;5070365;28;20474;-77
2022/07/01 03:40:56;;;;;;;1.70;1.60;;;14.20;99.90;;;;;;5074809;28;20524;-76
2022/07/01 03:43:23;;;;;;;2.90;1.50;;;14.20;99.90;;;;;;5078647;28;20466;-76
2022/07/01 03:45:50;;;;;;;2.17;1.70;;;14.20;99.90;;;;;;5078521;28;20470;-76
2022/07/01 03:48:17;;;;;;;1.53;1.30;;;14.20;99.90;;;;;;5076129;28;20479;-76
2022/07/01 03:50:43;;;;;;;1.67;1.57;;;14.10;99.90;;;;;;5077161;28;20535;-76
2022/07/01 03:55:56;;;;;;;1.50;1.20;;;14.10;99.90;;;;;;5077687;28;20453;-76
2022/07/01 03:58:23;;;;;;;2.40;1.30;;;14.10;99.90;;;;;;5078808;28;20513;-75
2022/07/01 04:00:50;;;;;;;1.50;1.40;;;14.10;99.90;;;;;;5062181;28;20455;-76
2022/07/01 04:03:17;;;;;;;1.90;1.60;;;14.00;99.90;;;;;;5063309;28;20914;-75
2022/07/01 04:05:43;;;;;;;2.70;1.37;;;14.00;99.90;;;;;;5061363;28;20517;-75
2022/07/01 04:08:11;;;;;;;2.13;1.40;;;14.00;99.90;;;;;;5062859;28;20483;-75
2022/07/01 04:10:39;;;;;;;2.80;1.30;;;14.00;99.90;;;;;;5062000;28;20447;-75
2022/07/01 04:13:06;;;;;;;1.93;1.20;;;14.00;99.90;;;;;;5061296;28;20463;-75
2022/07/01 04:15:33;;;;;;;2.90;1.23;;;14.00;99.90;;;;;;5055698;28;20991;-75
2022/07/01 04:18:00;;;;;;;1.00;0.90;;;14.00;99.90;;;;;;5053161;28;21014;-75
2022/07/01 04:20:27;;;;;;;1.83;1.17;;;14.00;99.90;;;;;;5123579;23;20459;-70
2022/07/01 04:22:53;;;;;;;1.10;1.00;;;14.00;99.90;;;;;;5092071;28;20981;-67
2022/07/01 04:25:21;;;;;;;2.43;1.20;;;14.00;99.90;;;;;;5111994;28;20455;-68
2022/07/01 04:27:48;;;;;;;1.97;1.10;;;14.00;99.90;;;;;;5102528;28;20589;-68
2022/07/01 04:30:15;;;;;;;1.87;1.50;;;14.00;99.90;;;;;;5092407;28;20474;-68
2022/07/01 04:32:41;;;;;;;1.40;1.20;;;14.00;99.90;;;;;;5092821;28;20458;-68
2022/07/01 04:35:11;;;;;;;3.57;1.33;;;14.00;99.90;;;;;;5093359;28;20457;-69
2022/07/01 04:37:38;;;;;;;2.13;1.30;;;14.10;99.90;;;;;;5093200;28;20480;-68
2022/07/01 04:40:06;;;;;;;3.10;1.10;;;14.10;99.90;;;;;;5092721;28;20458;-68
2022/07/01 04:42:33;;;;;;;1.30;1.17;;;14.10;99.90;;;;;;5093073;28;20960;-68
2022/07/01 04:45:00;;;;;;;1.20;1.10;;;14.10;99.90;;;;;;5093211;28;20462;-68
2022/07/01 04:47:32;;;;;;;1.33;1.20;;;14.10;99.90;;;;;;5092792;28;20485;-68
2022/07/01 04:50:01;;;;;;;1.37;1.13;;;14.10;99.90;;;;;;5092267;28;20486;-68
2022/07/01 04:52:28;;;;;;;1.50;1.40;;;14.10;99.90;;;;;;5093126;28;20988;-68
2022/07/01 04:54:54;;;;;;;1.53;1.40;;;14.10;99.90;;;;;;5092674;28;20979;-68
2022/07/01 04:57:22;;;;;;;1.13;1.03;;;14.10;99.90;;;;;;5092910;28;21169;-68
2022/07/01 04:59:50;;;;;;;2.27;1.30;;;14.10;99.90;;;;;;5091914;28;20461;-68
2022/07/01 05:02:16;;;;;;;2.57;1.20;;;14.10;99.90;;;;;;5092816;28;20465;-69
2022/07/01 05:04:43;;;;;;;1.67;1.03;;;14.10;99.90;;;;;;5092442;28;20470;-69
2022/07/01 05:07:27;;;;;;;2.23;1.33;;;14.10;99.90;;;;;;5092510;28;20846;-68
2022/07/01 05:09:54;;;;;;;1.60;1.43;;;14.10;99.90;;;;;;5091727;28;20496;-68
2022/07/01 05:12:21;;;;;;;1.13;1.03;;;14.10;99.90;;;;;;5092621;28;20936;-68
2022/07/01 05:14:49;;;;;;;2.27;1.40;;;14.10;99.90;;;;;;5092485;28;20457;-68
2022/07/01 05:17:16;;;;;;;1.40;1.30;;;14.10;99.90;;;;;;5092619;28;20478;-69
2022/07/01 05:22:27;;;;;;;1.10;1.00;;;14.10;99.90;;;;;;5092450;28;20457;-68
2022/07/01 05:24:53;;;;;;;1.30;1.20;;;14.10;99.90;;;;;;5093942;28;20461;-69
2022/07/01 05:27:20;;;;;;;1.20;1.07;;;14.10;99.90;;;;;;5092783;28;20477;-68
2022/07/01 05:29:47;;;;;;;1.90;1.07;;;14.10;99.90;;;;;;5091588;28;20481;-68
2022/07/01 05:32:15;;;;;;;3.70;1.30;;;14.10;99.90;;;;;;5092167;28;20458;-68
2022/07/01 05:34:42;;;;;;;1.30;1.17;;;14.10;99.90;;;;;;5092039;28;20461;-69
2022/07/01 05:37:09;;;;;;;2.20;1.23;;;14.20;99.90;;;;;;5092214;28;20480;-67
2022/07/01 05:39:36;;;;;;;1.73;1.40;;;14.20;99.90;;;;;;5091453;28;20457;-69
2022/07/01 05:42:03;;;;;;;2.90;1.30;;;14.20;99.90;;;;;;5092302;28;20465;-69
2022/07/01 05:44:29;;;;;;;2.23;1.50;;;14.20;99.90;;;;;;5092342;28;20564;-68
2022/07/01 05:46:56;;;;;;;1.40;1.30;;;14.20;99.90;;;;;;5091687;28;20484;-68
2022/07/01 05:49:24;;;;;;;1.20;1.07;;;14.20;99.90;;;;;;5091201;28;20488;-68
2022/07/01 05:51:51;;;;;;;1.50;1.10;;;14.20;99.90;;;;;;5091861;28;20461;-68
2022/07/01 05:54:17;;;;;;;1.80;1.20;;;14.20;99.90;;;;;;5092033;28;20956;-68
2022/07/01 05:56:44;;;;;;;1.37;1.10;;;14.20;99.90;;;;;;5091567;28;20598;-68
2022/07/01 05:59:11;;;;;;;1.40;1.30;;;14.20;99.90;;;;;;5091539;28;20464;-68
2022/07/01 06:01:37;;;;;;;1.37;1.27;;;14.20;99.90;;;;;;5091192;28;20461;-68
2022/07/01 06:04:04;;;;;;;1.60;1.30;;;14.20;99.90;;;;;;5091747;28;20457;-67
2022/07/01 06:06:32;;;;;;;1.17;1.07;;;14.20;99.90;;;;;;5091261;28;20481;-68
2022/07/01 06:08:59;;;;;;;1.93;1.40;;;14.20;99.90;;;;;;5091456;28;20488;-67
2022/07/01 06:11:26;;;;;;;1.63;1.37;;;14.20;99.90;;;;;;5090975;28;20461;-68
2022/07/01 06:13:52;;;;;;;1.47;1.37;;;14.20;99.90;;;;;;5091306;28;20468;-68
2022/07/01 06:16:19;;;;;;;2.07;1.23;;;14.10;99.90;;;;;;5091941;28;20464;-68
2022/07/01 06:18:46;;;;;;;2.27;1.60;;;14.10;99.90;;;;;;5090844;28;20489;-68
2022/07/01 06:21:14;;;;;;;1.83;1.47;;;14.10;99.90;;;;;;5090086;28;20477;-68
2022/07/01 06:23:42;;;;;;;4.17;1.67;;;14.10;99.90;;;;;;5091362;28;20566;-68
2022/07/01 06:26:09;;;;;;;1.53;1.30;;;14.10;99.90;;;;;;5091289;28;20473;-68
2022/07/01 06:28:36;;;;;;;1.60;1.30;;;14.10;99.90;;;;;;5090819;28;20478;-68
2022/07/01 06:31:03;;;;;;;2.97;1.80;;;14.20;99.90;;;;;;5090684;28;20469;-68
2022/07/01 06:33:30;;;;;;;1.40;1.13;;;14.20;99.90;;;;;;5090909;28;20778;-68
2022/07/01 06:35:57;;;;;;;2.57;1.57;;;14.20;99.90;;;;;;5091148;28;20461;-68
2022/07/01 06:38:24;;;;;;;1.60;1.50;;;14.30;99.90;;;;;;5090988;28;20477;-68
2022/07/01 06:43:33;;;;;;;1.97;1.80;;;14.20;99.90;;;;;;5090054;28;20450;-68
2022/07/01 06:46:00;;;;;;;2.00;1.40;;;14.20;99.90;;;;;;5090947;28;20456;-68
2022/07/01 06:48:26;;;;;;;1.60;1.40;;;14.20;99.90;;;;;;5090877;28;20480;-67
2022/07/01 06:50:53;;;;;;;2.20;2.00;;;14.20;99.90;;;;;;5090067;28;20481;-68
2022/07/01 06:53:20;;;;;;;2.53;1.63;;;14.20;99.90;;;;;;5090771;28;20462;-67
2022/07/01 06:55:47;;;;;;;2.03;1.63;;;14.30;99.90;;;;;;5090722;28;20465;-68
2022/07/01 06:58:15;;;;;;;1.57;1.33;;;14.30;99.90;;;;;;5090745;28;20501;-68
2022/07/01 07:00:41;;;;;;;1.97;1.50;;;14.30;99.90;;;;;;5090195;28;20517;-67
2022/07/01 07:03:08;;;;;;;2.90;1.33;;;14.20;99.90;;;;;;5090845;28;20845;-67
2022/07/01 07:05:35;;;;;;;2.20;1.37;;;14.20;99.90;;;;;;5090804;28;20480;-67
2022/07/01 07:08:02;;;;;;;1.70;1.40;;;14.30;99.90;;;;;;5090527;28;20486;-67
2022/07/01 07:10:29;;;;;;;1.30;1.20;;;14.30;99.90;;;;;;5090031;28;20963;-67
2022/07/01 07:12:56;;;;;;;1.70;1.40;;;14.30;99.90;;;;;;5090646;28;20464;-67
2022/07/01 07:15:24;;;;;;;2.60;1.60;;;14.30;99.90;;;;;;5090457;28;20983;-68
2022/07/01 07:17:51;;;;;;;2.37;1.30;;;14.40;99.90;;;;;;5090430;28;20489;-68
2022/07/01 07:20:18;;;;;;;2.33;1.70;;;14.40;99.90;;;;;;5090237;28;20467;-68
2022/07/01 07:22:44;;;;;;;1.37;1.10;;;14.40;99.90;;;;;;5090284;28;20473;-67
2022/07/01 07:25:11;;;;;;;1.67;1.40;;;14.40;99.90;;;;;;5090642;28;20469;-67
2022/07/01 07:27:38;;;;;;;1.70;1.60;;;14.40;99.90;;;;;;5090335;28;20489;-68
2022/07/01 07:30:05;;;;;;;2.70;1.37;;;14.40;99.90;;;;;;5089944;28;20507;-67
2022/07/01 07:32:33;;;;;;;2.00;1.70;;;14.50;99.90;;;;;;5093846;28;20465;-68
2022/07/01 07:35:00;;;;;;;2.60;1.80;;;14.50;99.90;;;;;;5094320;28;20465;-67
2022/07/01 07:37:27;;;;;;;1.57;1.43;;;14.50;99.90;;;;;;5094242;28;20481;-67
2022/07/01 07:39:53;;;;;;;1.37;1.20;;;14.50;99.90;;;;;;5093441;28;20453;-67
2022/07/01 07:42:20;;;;;;;2.60;1.40;;;14.50;99.90;;;;;;5094638;28;21173;-67
2022/07/01 07:44:47;;;;;;;1.63;1.50;;;14.50;99.90;;;;;;5093898;28;20465;-68
2022/07/01 07:47:13;;;;;;;2.07;1.30;;;14.50;99.90;;;;;;5094226;28;20488;-68
2022/07/01 07:49:41;;;;;;;1.50;1.40;;;14.50;99.90;;;;;;5093546;28;20493;-68
2022/07/01 07:52:08;;;;;;;1.67;1.30;;;14.50;99.90;;;;;;5094330;28;20482;-67
2022/07/01 07:54:35;;;;;;;2.20;1.30;;;14.60;99.90;;;;;;5093981;28;20841;-68
2022/07/01 07:57:02;;;;;;;2.50;1.30;;;14.50;99.90;;;;;;5093786;28;20481;-67
2022/07/01 07:59:28;;;;;;;1.20;1.10;;;14.60;99.90;;;;;;5093286;28;20457;-67
2022/07/01 08:01:55;;;;;;;1.50;1.40;;;14.50;99.90;;;;;;5093646;28;20469;-67
2022/07/01 08:04:22;;;;;;;1.83;1.47;;;14.50;99.90;;;;;;5094036;28;20512;-68
2022/07/01 08:06:50;;;;;;;1.50;1.30;;;14.50;99.90;;;;;;5093569;28;20499;-68
2022/07/01 08:09:17;;;;;;;1.30;1.10;;;14.50;99.90;;;;;;5093137;28;20839;-68
2022/07/01 08:11:43;;;;;;;2.50;1.40;;;14.40;99.90;;;;;;5093484;28;20949;-67
2022/07/01 08:14:10;;;;;;;2.03;1.40;;;14.40;99.90;;;;;;5093800;28;20465;-68
2022/07/01 08:16:37;;;;;;;4.37;1.60;;;14.40;99.90;;;;;;5093477;28;20464;-68
2022/07/01 08:19:04;;;;;;;1.90;1.67;;;14.50;99.90;;;;;;5093796;28;20458;-67
2022/07/01 08:21:31;;;;;;;1.30;1.20;;;14.50;99.90;;;;;;5093251;28;20458;-67
2022/07/01 08:23:59;;;;;;;2.27;1.50;;;14.50;99.90;;;;;;5093713;28;20512;-67
2022/07/01 08:26:26;;;;;;;1.97;1.40;;;14.50;99.90;;;;;;5093529;28;20466;-67
2022/07/01 08:28:52;;;;;;;2.90;1.70;;;14.60;99.90;;;;;;5093550;28;20867;-68
2022/07/01 08:31:19;;;;;;;1.93;1.50;;;14.60;99.90;;;;;;5093132;28;20492;-68
2022/07/01 08:33:46;;;;;;;1.53;1.40;;;14.60;99.90;;;;;;5093141;28;20485;-68
2022/07/01 08:36:13;;;;;;;2.07;1.73;;;14.60;99.90;;;;;;5093433;28;20469;-68
2022/07/01 08:38:41;;;;;;;2.80;1.60;;;14.60;99.90;;;;;;5093429;28;20520;-68
2022/07/01 08:41:09;;;;;;;2.07;1.70;;;14.70;99.90;;;;;;5092969;28;20480;-68
2022/07/01 08:43:36;;;;;;;1.83;1.50;;;14.70;99.90;;;;;;5092160;28;20465;-68
2022/07/01 08:46:03;;;;;;;1.77;1.50;;;14.70;99.90;;;;;;5093184;28;20461;-68
2022/07/01 08:48:30;;;;;;;1.70;1.33;;;14.70;99.90;;;;;;5092963;28;20481;-67
2022/07/01 08:50:57;;;;;;;3.93;1.57;;;14.70;99.90;;;;;;5092461;28;20832;-68
2022/07/01 08:53:24;;;;;;;1.80;1.60;;;14.70;99.90;;;;;;5093057;28;20834;-68
2022/07/01 08:58:36;;;;;;;2.47;1.67;;;14.60;99.90;;;;;;5092321;28;20457;-67
2022/07/01 09:01:14;;;;;;;2.10;1.63;;;14.70;99.90;;;;;;5092843;28;20495;-67
2022/07/01 09:03:41;;;;;;;2.30;1.53;;;14.70;99.90;;;;;;5092493;28;20457;-67
2022/07/01 09:06:14;;;;;;;1.70;1.33;;;14.70;99.90;;;;;;5093024;28;20912;-67
2022/07/01 09:08:41;;;;;;;2.60;1.70;;;14.70;99.90;;;;;;5092293;28;20531;-68
2022/07/01 09:11:13;;;;;;;2.13;1.37;;;14.70;99.90;;;;;;5092246;28;20489;-67
2022/07/01 09:13:41;;;;;;;2.23;1.70;;;14.70;99.90;;;;;;5092589;28;20549;-67
2022/07/01 09:16:12;;;;;;;5.90;2.00;;;14.60;99.90;;;;;;5092440;28;20983;-67
2022/07/01 09:18:39;;;;;;;3.80;1.40;;;14.60;99.90;;;;;;5092022;28;20478;-68
2022/07/01 09:21:09;;;;;;;3.03;1.73;;;14.60;99.90;;;;;;5091855;28;20476;-67
2022/07/01 09:23:35;;;;;;;2.20;1.50;;;14.60;99.90;;;;;;5092198;28;20633;-67
2022/07/01 09:26:02;;;;;;;2.40;1.43;;;14.60;99.90;;;;;;5092023;28;20462;-67
2022/07/01 09:28:29;;;;;;;1.30;1.20;;;14.60;99.90;;;;;;5091982;28;20473;-67
2022/07/01 09:30:59;;;;;;;1.90;1.40;;;14.60;99.90;;;;;;5091326;28;21038;-67
2022/07/01 09:33:27;;;;;;;1.63;1.40;;;14.50;99.90;;;;;;5092068;28;20457;-67
2022/07/01 09:35:54;;;;;;;3.10;2.00;;;14.50;99.90;;;;;;5091981;28;20866;-67
2022/07/01 09:38:23;;;;;;;2.43;1.57;;;14.50;99.90;;;;;;5092127;28;20488;-67
2022/07/01 09:40:52;;;;;;;1.93;1.53;;;14.50;99.90;;;;;;5091247;28;20959;-67
2022/07/01 09:43:21;;;;;;;2.07;1.40;;;14.50;99.90;;;;;;5092191;28;20480;-67
2022/07/01 09:45:57;;;;;;;3.13;1.80;;;14.50;99.90;;;;;;5091663;28;20458;-67
2022/07/01 09:48:26;;;;;;;1.33;1.23;;;14.50;99.90;;;;;;5091879;28;20988;-67
2022/07/01 09:50:53;;;;;;;2.60;1.30;;;14.50;99.90;;;;;;5091028;28;20474;-70
2022/07/01 09:53:21;;;;;;;4.00;1.60;;;14.50;99.90;;;;;;5091920;28;20457;-70
2022/07/01 09:55:47;;;;;;;2.50;1.77;;;14.50;99.90;;;;;;5091311;28;20488;-70
2022/07/01 09:58:14;;;;;;;1.30;1.20;;;14.60;99.90;;;;;;5091749;28;20474;-70
2022/07/01 10:00:41;;;;;;;1.63;1.50;;;14.70;99.90;;;;;;5091103;28;20445;-70
2022/07/01 10:03:10;;;;;;;2.20;1.60;;;14.70;99.90;;;;;;5091760;28;20811;-70
2022/07/01 10:05:43;;;;;;;2.23;1.60;;;14.80;99.90;;;;;;5091313;28;20457;-70
2022/07/01 10:08:37;;;;;;;2.93;1.47;;;14.90;99.90;;;;;;5091867;28;20477;-70
2022/07/01 10:11:26;;;;;;;2.10;1.30;;;15.00;99.90;;;;;;5091199;28;20521;-71
2022/07/01 10:13:54;;;;;;;1.63;1.20;;;15.10;99.90;;;;;;5091447;28;20461;-71
2022/07/01 10:16:21;;;;;;;2.07;1.50;;;15.10;99.90;;;;;;5091376;28;20552;-68
2022/07/01 10:18:49;;;;;;;1.70;1.43;;;15.10;99.90;;;;;;5091085;28;20477;-68
2022/07/01 10:21:28;;;;;;;1.90;1.53;;;15.20;99.90;;;;;;5119447;22;20465;-91
2022/07/01 10:24:12;;;;;;;2.30;1.40;;;15.20;99.90;;;;;;5094672;28;20445;-92
2022/07/01 10:26:39;;;;;;;5.93;2.03;;;15.30;99.90;;;;;;5094873;28;20965;-92
2022/07/01 10:29:07;;;;;;;1.67;1.57;;;15.30;99.90;;;;;;5094587;28;20454;-92
2022/07/01 10:31:37;;;;;;;3.87;1.70;;;15.40;99.90;;;;;;5088819;28;20486;-92
2022/07/01 10:34:06;;;;;;;3.30;1.67;;;15.50;99.90;;;;;;5075920;22;21005;-74
2022/07/01 10:36:34;;;;;;;2.07;1.87;;;15.60;99.90;;;;;;5070155;28;20455;-74
2022/07/01 10:39:10;;;;;;;1.40;1.30;;;15.60;99.90;;;;;;5050646;28;20463;-74
2022/07/01 10:41:39;;;;;;;1.80;1.53;;;15.60;99.90;;;;;;5050307;28;20451;-74
2022/07/01 10:44:07;;;;;;;2.13;1.80;;;15.60;99.90;;;;;;5050756;28;20562;-74
2022/07/01 10:46:44;;;;;;;1.50;1.40;;;15.60;99.90;;;;;;5050682;28;20812;-74
2022/07/01 10:49:13;;;;;;;1.70;1.60;;;15.70;99.90;;;;;;5050203;28;20994;-74
2022/07/01 10:51:48;;;;;;;2.70;1.60;;;15.70;99.90;;;;;;5050800;28;20510;-74
2022/07/01 10:54:30;;;;;;;2.03;1.43;;;15.90;99.90;;;;;;5050487;28;20467;-74
2022/07/01 10:56:57;;;;;;;1.43;1.33;;;16.10;99.90;;;;;;5050469;28;20480;-74
2022/07/01 10:59:24;;;;;;;2.10;1.53;;;16.30;99.90;;;;;;5049686;28;20463;-74
2022/07/01 11:01:50;;;;;;;3.07;2.00;;;16.50;99.90;;;;;;5050625;28;20466;-74
2022/07/01 11:04:19;;;;;;;2.17;1.20;;;16.60;99.90;;;;;;5050247;28;20459;-74
2022/07/01 11:06:46;;;;;;;2.37;1.70;;;16.80;99.90;;;;;;5052908;28;20468;-74
2022/07/01 11:09:13;;;;;;;2.80;1.67;;;16.70;99.90;;;;;;5053733;28;20851;-73
2022/07/01 11:11:40;;;;;;;2.40;1.43;;;16.70;99.90;;;;;;5054706;28;20572;-74
2022/07/01 11:14:07;;;;;;;2.30;1.70;;;16.80;99.90;;;;;;5054383;28;20466;-74
2022/07/01 11:16:35;;;;;;;2.23;1.57;;;16.90;99.90;;;;;;5054369;28;20466;-74
2022/07/01 11:19:02;;;;;;;1.80;1.50;;;16.90;99.90;;;;;;5054221;28;20463;-74
2022/07/01 11:21:30;;;;;;;1.60;1.50;;;16.80;99.90;;;;;;5053755;28;20461;-74
2022/07/01 11:23:56;;;;;;;3.87;1.90;;;16.80;99.90;;;;;;5054251;28;20470;-74
2022/07/01 11:26:24;;;;;;;3.40;1.50;;;16.90;99.90;;;;;;5054129;28;20459;-74
2022/07/01 11:28:51;;;;;;;1.43;1.33;;;16.90;99.90;;;;;;5053992;28;20990;-74
2022/07/01 11:31:28;;;;;;;3.80;1.63;;;17.00;99.90;;;;;;5053678;28;20483;-74
2022/07/01 11:33:56;;;;;;;1.60;1.50;;;17.00;99.90;;;;;;5054253;28;20467;-74
2022/07/01 11:39:23;;;;;;;1.97;1.73;;;16.90;99.90;;;;;;5053570;28;20516;-74
2022/07/01 11:41:53;;;;;;;1.60;1.50;;;16.80;99.90;;;;;;5054138;28;20460;-74
2022/07/01 11:44:29;;;;;;;2.07;1.60;;;16.70;99.90;;;;;;5053972;28;20470;-74
2022/07/01 11:46:56;;;;;;;1.60;1.50;;;16.70;99.90;;;;;;5054123;28;20497;-74
2022/07/01 11:49:23;;;;;;;1.90;1.53;;;16.70;99.90;;;;;;5052916;28;20554;-74
2022/07/01 11:51:56;;;;;;;4.03;1.73;;;16.80;99.90;;;;;;5053807;28;20567;-74
2022/07/01 11:54:24;;;;;;;2.70;1.60;;;16.80;99.90;;;;;;5053491;28;20521;-74
2022/07/01 11:56:50;;;;;;;2.50;1.43;;;16.80;99.90;;;;;;5053896;28;20463;-74
2022/07/01 11:59:18;;;;;;;1.43;1.33;;;16.80;99.90;;;;;;5052841;28;20466;-74
2022/07/01 12:01:53;;;;;;;1.60;1.50;;;16.80;99.90;;;;;;5053593;28;20543;-74
2022/07/01 12:04:20;;;;;;;2.07;1.27;;;16.60;99.90;;;;;;5053456;28;20467;-74
2022/07/01 12:06:47;;;;;;;3.53;1.83;;;16.50;99.90;;;;;;5053311;28;20463;-74
2022/07/01 12:09:15;;;;;;;1.50;1.20;;;16.40;99.90;;;;;;5052745;28;20455;-74
2022/07/01 12:11:47;;;;;;;2.00;1.80;;;16.40;99.90;;;;;;5053317;28;20478;-74
2022/07/01 12:14:20;;;;;;;3.60;1.73;;;16.60;99.90;;;;;;5053169;28;20462;-74
2022/07/01 12:16:48;;;;;;;1.50;1.30;;;16.90;99.90;;;;;;5052880;28;20466;-74
2022/07/01 12:19:15;;;;;;;1.60;1.50;;;17.20;99.90;;;;;;5051735;28;20459;-74
2022/07/01 12:21:50;;;;;;;1.97;1.67;;;17.40;99.90;;;;;;5053171;28;20455;-74
2022/07/01 12:24:21;;;;;;;2.83;1.50;;;17.50;99.90;;;;;;5052900;28;20467;-74
2022/07/01 12:26:52;;;;;;;1.50;1.40;;;17.70;99.90;;;;;;5053059;28;20455;-74
2022/07/01 12:29:20;;;;;;;1.63;1.43;;;17.80;99.90;;;;;;5052807;28;20888;-75
2022/07/01 12:31:59;;;;;;;1.40;1.30;;;17.80;99.90;;;;;;5053094;28;20487;-75
2022/07/01 12:34:39;;;;;;;1.70;1.40;;;17.60;99.90;;;;;;5052869;28;20528;-74
2022/07/01 12:37:11;;;;;;;2.73;1.60;;;17.60;99.90;;;;;;5052792;28;20479;-74
2022/07/01 12:39:47;;;;;;;1.70;1.30;;;17.50;99.90;;;;;;5052679;28;20463;-75
2022/07/01 12:42:23;;;;;;;1.80;1.43;;;17.40;99.90;;;;;;5052682;28;20459;-75
2022/07/01 12:44:51;;;;;;;1.87;1.50;;;17.20;99.90;;;;;;5052974;28;20465;-74
2022/07/01 12:47:19;;;;;;;1.60;1.37;;;17.10;99.90;;;;;;5052413;28;20994;-74
2022/07/01 12:49:46;;;;;;;1.90;1.70;;;17.10;99.90;;;;;;5052355;28;20470;-74
2022/07/01 12:52:25;;;;;;;1.73;1.60;;;17.20;99.90;;;;;;5052318;28;20490;-74
2022/07/01 12:54:51;;;;;;;1.80;1.53;;;17.30;99.90;;;;;;5052827;28;20988;-74
2022/07/01 12:57:31;;;;;;;2.03;1.63;;;17.40;99.90;;;;;;5052221;28;20480;-74
2022/07/01 12:59:58;;;;;;;1.70;1.50;;;17.50;99.90;;;;;;5052080;28;20512;-74
2022/07/01 13:02:24;;;;;;;1.50;1.40;;;17.60;99.90;;;;;;5052305;28;20809;-74
2022/07/01 13:04:51;;;;;;;2.10;1.90;;;17.70;99.90;;;;;;5052575;28;20466;-74
2022/07/01 13:07:18;;;;;;;3.40;1.40;;;17.90;99.90;;;;;;5051911;28;20483;-74
2022/07/01 13:09:45;;;;;;;2.90;1.40;;;17.90;99.90;;;;;;5051809;28;20968;-74